Time;durP1;ratioP1;P1;durP2;ratioP2;P2;SDS_P1;SDS_P2;PMS_P1;PMS_P2;Temp;Humidity;BMP_temperature;BMP_pressure;BME280_temperature;BME280_humidity;BME280_pressure;Samples;Min_cycle;Max_cycle;Signal;HPM_P1;HPM_P2
2022/02/27 00:00:15;;;;;;;13.23;9.10;;;;;;;1.05;100.00;100846.53;5054522;28;20229;-74
2022/02/27 00:02:57;;;;;;;13.13;9.00;;;;;;;1.09;100.00;100850.59;5086147;23;20226;-73
2022/02/27 00:05:27;;;;;;;12.80;9.10;;;;;;;1.03;100.00;100848.47;5054244;28;20225;-74
2022/02/27 00:07:59;;;;;;;11.77;9.23;;;;;;;0.96;100.00;100853.44;5062588;28;20238;-73
2022/02/27 00:10:44;;;;;;;12.77;8.60;;;;;;;0.95;100.00;100850.91;5043479;28;20239;-74
2022/02/27 00:13:14;;;;;;;13.07;8.90;;;;;;;1.01;100.00;100853.03;5047613;28;20206;-74
2022/02/27 00:16:05;;;;;;;10.03;8.80;;;;;;;0.87;100.00;100847.13;5072201;23;20218;-72
2022/02/27 00:18:33;;;;;;;11.80;8.90;;;;;;;0.79;100.00;100849.53;5080465;22;20208;-72
2022/02/27 00:21:25;;;;;;;14.33;9.27;;;;;;;0.59;100.00;100847.72;5014333;23;20233;-73
2022/02/27 00:24:08;;;;;;;13.37;9.43;;;;;;;0.55;100.00;100846.31;5064686;22;20212;-74
2022/02/27 00:26:49;;;;;;;13.50;9.07;;;;;;;0.66;100.00;100845.41;5078659;23;20305;-75
2022/02/27 00:29:18;;;;;;;14.60;9.60;;;;;;;0.64;100.00;100847.34;5065518;23;20317;-75
2022/02/27 00:31:48;;;;;;;13.63;9.50;;;;;;;0.45;100.00;100845.38;5058588;28;20204;-73
2022/02/27 00:34:32;;;;;;;11.77;9.63;;;;;;;0.44;100.00;100841.06;5048637;23;20317;-73
2022/02/27 00:37:04;;;;;;;13.60;9.67;;;;;;;0.65;100.00;100852.50;5063209;23;20251;-73
2022/02/27 00:39:38;;;;;;;13.50;10.30;;;;;;;0.52;100.00;100843.91;5078318;23;20210;-73
2022/02/27 00:42:11;;;;;;;15.57;10.23;;;;;;;0.68;100.00;100844.34;5061340;23;20216;-74
2022/02/27 00:44:45;;;;;;;18.13;10.60;;;;;;;0.73;100.00;100843.94;5045865;23;20234;-76
2022/02/27 00:47:26;;;;;;;16.03;11.10;;;;;;;0.78;100.00;100852.31;5073793;23;20225;-73
2022/02/27 00:50:11;;;;;;;16.67;11.10;;;;;;;0.84;100.00;100842.09;5070370;28;20229;-73
2022/02/27 00:52:38;;;;;;;14.53;11.10;;;;;;;0.84;100.00;100846.56;5048790;28;20247;-77
2022/02/27 00:55:08;;;;;;;15.97;10.97;;;;;;;0.86;100.00;100852.53;5060289;28;20212;-74
2022/02/27 00:57:35;;;;;;;15.97;11.40;;;;;;;1.12;100.00;100845.88;5048712;23;20226;-72
2022/02/27 01:00:07;;;;;;;15.60;11.37;;;;;;;0.94;100.00;100855.34;5060433;23;20249;-74
2022/02/27 01:02:47;;;;;;;15.60;11.40;;;;;;;1.10;100.00;100854.91;5075987;22;20230;-75
2022/02/27 01:06:03;;;;;;;15.90;11.43;;;;;;;1.09;100.00;100851.44;5149912;22;20226;-73
2022/02/27 01:08:35;;;;;;;18.03;12.20;;;;;;;1.25;100.00;100846.53;5015965;28;20220;-74
2022/02/27 01:11:07;;;;;;;16.97;12.30;;;;;;;1.45;100.00;100841.31;5058768;23;20237;-73
2022/02/27 01:13:41;;;;;;;18.13;12.83;;;;;;;1.43;100.00;100840.66;5046883;28;20249;-74
2022/02/27 01:16:08;;;;;;;17.20;12.50;;;;;;;1.68;100.00;100843.66;5045158;23;20231;-73
2022/02/27 01:18:53;;;;;;;16.40;12.07;;;;;;;1.59;100.00;100841.81;5052460;28;20233;-73
2022/02/27 01:21:25;;;;;;;16.47;12.43;;;;;;;1.40;100.00;100836.44;5056746;28;20221;-73
2022/02/27 01:24:25;;;;;;;16.57;12.40;;;;;;;1.31;100.00;100840.72;5061280;23;20261;-75
2022/02/27 01:26:55;;;;;;;16.60;12.77;;;;;;;1.27;100.00;100844.59;5063059;23;20218;-75
2022/02/27 01:29:40;;;;;;;19.13;13.27;;;;;;;1.44;100.00;100839.69;5038045;28;20222;-73
2022/02/27 01:32:17;;;;;;;18.03;13.87;;;;;;;1.42;100.00;100842.44;5068496;23;20253;-73
2022/02/27 01:34:51;;;;;;;16.23;13.23;;;;;;;1.45;100.00;100844.81;5035947;28;20241;-73
2022/02/27 01:37:29;;;;;;;18.10;13.23;;;;;;;1.48;100.00;100841.09;5056644;23;20241;-73
2022/02/27 01:39:59;;;;;;;19.27;13.40;;;;;;;1.51;100.00;100849.56;5088696;28;20225;-73
2022/02/27 01:42:40;;;;;;;19.20;12.77;;;;;;;1.52;100.00;100842.50;5065012;28;20222;-73
2022/02/27 01:45:13;;;;;;;16.07;12.23;;;;;;;1.51;100.00;100843.44;5048382;28;20226;-73
2022/02/27 01:47:43;;;;;;;17.17;13.20;;;;;;;1.46;100.00;100851.78;5067418;28;20224;-74
2022/02/27 01:50:26;;;;;;;17.47;12.93;;;;;;;1.45;100.00;100852.72;5065707;28;20218;-73
2022/02/27 01:52:56;;;;;;;18.87;12.73;;;;;;;1.38;100.00;100854.25;5049645;28;20229;-73
2022/02/27 01:55:26;;;;;;;14.37;12.10;;;;;;;1.54;100.00;100856.41;5067565;28;20256;-73
2022/02/27 01:58:00;;;;;;;17.97;12.87;;;;;;;1.84;100.00;100855.53;5057388;28;20217;-73
2022/02/27 02:00:49;;;;;;;16.23;12.37;;;;;;;1.66;100.00;100858.84;5051511;23;20240;-73
2022/02/27 02:03:44;;;;;;;17.40;12.50;;;;;;;1.71;100.00;100859.28;5077778;23;20256;-75
2022/02/27 02:06:14;;;;;;;14.70;11.77;;;;;;;1.60;100.00;100853.22;5056348;28;20198;-73
2022/02/27 02:08:59;;;;;;;15.50;12.47;;;;;;;1.55;100.00;100853.63;5073038;28;20232;-73
2022/02/27 02:11:27;;;;;;;16.40;11.67;;;;;;;1.53;100.00;100845.00;5073907;28;20201;-73
2022/02/27 02:13:56;;;;;;;19.37;13.17;;;;;;;1.65;100.00;100848.38;5050666;23;20226;-73
2022/02/27 02:17:00;;;;;;;17.80;12.33;;;;;;;1.58;100.00;100849.91;5046971;28;20229;-73
2022/02/27 02:19:29;;;;;;;18.17;11.90;;;;;;;1.56;100.00;100851.81;5022761;28;20261;-73
2022/02/27 02:22:21;;;;;;;15.67;12.20;;;;;;;1.63;100.00;100853.78;5072804;23;20238;-74
2022/02/27 02:24:54;;;;;;;16.50;12.13;;;;;;;1.64;100.00;100862.56;5052586;28;20229;-73
2022/02/27 02:27:33;;;;;;;17.63;12.40;;;;;;;1.70;100.00;100852.31;5071487;22;20229;-73
2022/02/27 02:30:09;;;;;;;16.70;12.27;;;;;;;1.52;100.00;100856.53;5040914;23;20570;-74
2022/02/27 02:33:05;;;;;;;17.63;13.47;;;;;;;1.36;100.00;100861.44;5055498;23;20218;-74
2022/02/27 02:35:38;;;;;;;17.20;12.97;;;;;;;1.45;100.00;100854.53;5065324;28;20232;-75
2022/02/27 02:38:06;;;;;;;17.43;13.50;;;;;;;1.29;100.00;100866.44;5061172;23;20296;-76
2022/02/27 02:40:41;;;;;;;18.30;13.33;;;;;;;1.31;100.00;100864.47;5065239;23;20226;-74
2022/02/27 02:43:23;;;;;;;18.97;14.17;;;;;;;1.46;100.00;100870.25;5068609;22;20230;-73
2022/02/27 02:46:11;;;;;;;19.37;14.30;;;;;;;1.38;100.00;100870.09;5036330;28;20237;-73
2022/02/27 02:48:42;;;;;;;21.73;15.53;;;;;;;1.49;100.00;100862.09;5059926;23;20230;-73
2022/02/27 02:51:42;;;;;;;21.37;14.60;;;;;;;1.41;100.00;100872.47;5057734;22;20686;-74
2022/02/27 02:54:16;;;;;;;19.77;14.97;;;;;;;1.59;100.00;100862.94;5056290;23;20233;-73
2022/02/27 02:56:51;;;;;;;20.00;15.37;;;;;;;1.46;100.00;100864.97;5044829;23;20244;-73
2022/02/27 02:59:24;;;;;;;20.10;15.07;;;;;;;1.59;100.00;100864.75;5055028;28;20224;-73
2022/02/27 03:02:05;;;;;;;22.07;16.10;;;;;;;1.43;100.00;100870.53;5067888;28;20259;-73
2022/02/27 03:04:33;;;;;;;22.33;16.53;;;;;;;1.22;100.00;100864.41;5056176;28;20217;-73
2022/02/27 03:07:04;;;;;;;22.70;16.17;;;;;;;1.39;100.00;100866.47;5079617;22;20225;-73
2022/02/27 03:09:38;;;;;;;20.93;15.87;;;;;;;1.43;100.00;100870.53;5060709;23;20283;-74
2022/02/27 03:12:29;;;;;;;22.03;16.10;;;;;;;1.52;100.00;100863.63;5015992;22;20232;-73
2022/02/27 03:15:09;;;;;;;21.50;15.90;;;;;;;1.26;100.00;100869.31;5072386;28;20228;-73
2022/02/27 03:17:42;;;;;;;23.77;16.20;;;;;;;1.00;100.00;100865.41;5073498;22;20232;-73
2022/02/27 03:20:11;;;;;;;23.50;16.97;;;;;;;1.20;100.00;100869.00;5062680;28;20232;-73
2022/02/27 03:22:40;;;;;;;23.97;16.77;;;;;;;1.20;100.00;100861.09;5055645;28;20237;-74
2022/02/27 03:25:09;;;;;;;24.17;17.67;;;;;;;1.32;100.00;100866.16;5048152;23;20260;-73
2022/02/27 03:27:47;;;;;;;23.97;17.17;;;;;;;1.39;100.00;100863.84;5027782;23;20244;-74
2022/02/27 03:30:24;;;;;;;23.40;17.03;;;;;;;1.20;100.00;100869.84;5053850;23;20249;-73
2022/02/27 03:32:57;;;;;;;23.17;18.40;;;;;;;1.28;100.00;100870.03;5069358;23;20229;-73
2022/02/27 03:35:26;;;;;;;22.87;17.03;;;;;;;1.44;100.00;100866.94;5089871;23;20296;-74
2022/02/27 03:37:56;;;;;;;26.10;18.30;;;;;;;1.30;100.00;100869.91;5113432;23;20286;-73
2022/02/27 03:40:33;;;;;;;23.37;16.93;;;;;;;1.23;100.00;100869.56;5077269;23;20221;-76
2022/02/27 03:43:04;;;;;;;25.43;17.97;;;;;;;1.17;100.00;100869.25;5077698;22;20258;-74
2022/02/27 03:45:45;;;;;;;25.37;18.27;;;;;;;1.32;100.00;100871.44;5019138;28;20237;-74
2022/02/27 03:48:22;;;;;;;23.87;17.60;;;;;;;1.38;100.00;100870.09;5069654;28;20209;-73
2022/02/27 03:50:56;;;;;;;25.80;17.93;;;;;;;1.19;100.00;100872.59;5072344;28;20280;-73
2022/02/27 03:53:35;;;;;;;24.17;17.37;;;;;;;1.41;100.00;100868.97;5076829;22;20229;-73
2022/02/27 03:56:07;;;;;;;25.10;17.90;;;;;;;1.26;100.00;100876.41;5054434;28;20242;-73
2022/02/27 03:58:34;;;;;;;24.03;16.93;;;;;;;1.25;100.00;100867.66;5074364;23;20271;-73
2022/02/27 04:01:09;;;;;;;25.13;18.03;;;;;;;1.28;100.00;100869.19;5074294;28;20228;-72
2022/02/27 04:03:44;;;;;;;25.67;18.27;;;;;;;1.10;100.00;100866.31;5074641;28;20231;-75
2022/02/27 04:06:15;;;;;;;26.13;19.57;;;;;;;1.04;100.00;100869.44;5071841;28;20236;-73
2022/02/27 04:08:43;;;;;;;27.40;18.43;;;;;;;1.02;100.00;100867.91;5072739;28;20217;-74
2022/02/27 04:11:14;;;;;;;24.73;18.27;;;;;;;1.08;100.00;100873.50;5074946;28;20235;-75
2022/02/27 04:13:42;;;;;;;26.90;18.10;;;;;;;1.12;100.00;100879.38;5073447;28;20200;-72
2022/02/27 04:16:15;;;;;;;26.10;18.63;;;;;;;1.17;100.00;100875.38;5061329;23;20236;-73
2022/02/27 04:18:59;;;;;;;29.83;20.10;;;;;;;1.19;100.00;100867.31;5075058;23;20234;-73
2022/02/27 04:21:31;;;;;;;28.10;19.47;;;;;;;1.22;100.00;100874.97;5062943;28;20236;-73
2022/02/27 04:24:08;;;;;;;26.47;19.43;;;;;;;1.12;100.00;100872.28;5083002;28;20235;-73
2022/02/27 04:26:40;;;;;;;27.10;18.40;;;;;;;1.22;100.00;100872.34;5072361;28;20244;-73
2022/02/27 04:29:10;;;;;;;26.27;19.53;;;;;;;1.10;100.00;100866.31;5075918;28;20241;-73
2022/02/27 04:31:38;;;;;;;25.67;18.67;;;;;;;1.06;100.00;100871.97;5072135;28;20220;-73
2022/02/27 04:34:07;;;;;;;29.07;19.83;;;;;;;0.98;100.00;100871.78;5071426;22;20691;-73
2022/02/27 04:36:37;;;;;;;27.07;19.37;;;;;;;1.10;100.00;100874.22;5082161;28;20215;-73
2022/02/27 04:39:04;;;;;;;29.67;20.13;;;;;;;1.24;100.00;100880.97;5062712;28;20222;-73
2022/02/27 04:41:36;;;;;;;29.00;20.00;;;;;;;1.09;100.00;100888.38;5080574;28;20233;-72
2022/02/27 04:44:10;;;;;;;29.80;20.13;;;;;;;1.20;100.00;100884.84;5070364;28;20220;-73
2022/02/27 04:46:36;;;;;;;30.10;20.40;;;;;;;1.13;100.00;100878.41;5082027;28;20220;-73
2022/02/27 04:49:06;;;;;;;30.70;20.50;;;;;;;1.12;100.00;100887.31;5081118;22;20267;-74
2022/02/27 04:51:40;;;;;;;27.47;19.53;;;;;;;1.02;100.00;100892.50;5046433;28;20247;-74
2022/02/27 04:54:17;;;;;;;30.57;20.47;;;;;;;1.27;100.00;100888.63;5066330;28;20252;-73
2022/02/27 04:56:50;;;;;;;28.37;20.33;;;;;;;1.16;100.00;100886.91;5063030;28;20493;-74
2022/02/27 04:59:21;;;;;;;31.70;21.90;;;;;;;1.20;100.00;100893.59;5068159;28;20639;-73
2022/02/27 05:01:52;;;;;;;30.30;21.43;;;;;;;1.17;100.00;100896.47;5074251;28;20320;-72
2022/02/27 05:04:26;;;;;;;29.30;21.03;;;;;;;1.15;100.00;100892.31;5051749;28;20225;-73
2022/02/27 05:06:55;;;;;;;29.93;21.20;;;;;;;1.01;100.00;100900.53;5071007;28;20227;-74
2022/02/27 05:09:30;;;;;;;30.80;21.60;;;;;;;1.03;100.00;100901.25;5063624;28;20193;-73
2022/02/27 05:12:20;;;;;;;30.33;21.47;;;;;;;1.12;100.00;100911.06;5048416;28;20261;-73
2022/02/27 05:15:20;;;;;;;27.70;20.80;;;;;;;1.29;100.00;100910.47;5077800;22;20273;-73
2022/02/27 05:17:51;;;;;;;30.80;21.70;;;;;;;1.29;100.00;100911.31;5085843;22;20236;-74
2022/02/27 05:20:31;;;;;;;29.60;20.93;;;;;;;1.08;100.00;100918.38;5087436;22;20524;-74
2022/02/27 05:23:01;;;;;;;31.70;22.30;;;;;;;0.98;100.00;100922.72;5075282;23;20252;-72
2022/02/27 05:25:32;;;;;;;32.70;21.63;;;;;;;0.98;100.00;100933.28;5065199;28;20567;-73
2022/02/27 05:28:02;;;;;;;33.63;22.67;;;;;;;0.94;100.00;100934.50;5072048;28;20221;-73
2022/02/27 05:30:35;;;;;;;31.47;22.37;;;;;;;1.02;100.00;100936.53;5070519;28;20236;-74
2022/02/27 05:33:14;;;;;;;31.53;22.03;;;;;;;1.03;100.00;100941.66;5066499;28;20240;-73
2022/02/27 05:35:46;;;;;;;34.50;22.87;;;;;;;1.09;100.00;100941.16;5069114;28;20205;-73
2022/02/27 05:38:16;;;;;;;35.23;23.43;;;;;;;1.10;100.00;100936.72;5069677;28;20225;-72
2022/02/27 05:40:49;;;;;;;34.00;22.93;;;;;;;1.10;100.00;100937.56;5084930;23;20232;-73
2022/02/27 05:43:25;;;;;;;34.07;22.87;;;;;;;1.12;100.00;100934.81;5073136;28;20196;-73
2022/02/27 05:45:54;;;;;;;32.17;22.30;;;;;;;1.22;100.00;100946.25;5089897;22;20225;-73
2022/02/27 05:48:32;;;;;;;31.53;21.87;;;;;;;1.15;100.00;100940.66;5071687;22;20220;-75
2022/02/27 05:51:07;;;;;;;33.53;22.37;;;;;;;1.02;100.00;100945.28;5095651;23;20240;-72
2022/02/27 05:53:37;;;;;;;32.23;22.70;;;;;;;1.15;100.00;100951.22;5090989;28;20635;-73
2022/02/27 05:56:09;;;;;;;32.07;22.47;;;;;;;1.24;100.00;100953.09;5100911;23;20661;-74
2022/02/27 05:58:39;;;;;;;34.20;23.20;;;;;;;1.27;100.00;100949.34;5069245;28;20229;-73
2022/02/27 06:01:07;;;;;;;32.53;22.37;;;;;;;1.22;100.00;100943.63;5075138;28;20235;-75
2022/02/27 06:03:34;;;;;;;32.13;23.07;;;;;;;1.22;100.00;100952.38;5068888;28;20221;-74
2022/02/27 06:06:05;;;;;;;32.97;23.43;;;;;;;1.15;100.00;100953.03;5068102;28;20244;-73
2022/02/27 06:08:35;;;;;;;32.17;24.57;;;;;;;1.25;100.00;100949.50;5067441;28;20312;-72
2022/02/27 06:11:04;;;;;;;31.67;23.23;;;;;;;1.38;100.00;100962.50;5068406;28;20225;-76
2022/02/27 06:13:33;;;;;;;34.43;23.37;;;;;;;1.24;100.00;100955.75;5075122;28;20231;-74
2022/02/27 06:16:03;;;;;;;33.47;23.13;;;;;;;1.15;100.00;100945.09;5067208;28;20283;-75
2022/02/27 06:18:35;;;;;;;33.90;22.67;;;;;;;1.25;100.00;100953.94;5068068;28;20245;-73
2022/02/27 06:21:04;;;;;;;32.30;23.87;;;;;;;1.21;100.00;100957.81;5075032;28;20210;-74
2022/02/27 06:23:31;;;;;;;34.00;23.27;;;;;;;1.27;100.00;100957.28;5074649;23;20582;-73
2022/02/27 06:25:59;;;;;;;34.83;24.03;;;;;;;1.26;100.00;100960.91;5067246;28;20233;-76
2022/02/27 06:28:26;;;;;;;28.90;21.60;;;;;;;1.40;100.00;100962.41;5061817;28;20221;-72
2022/02/27 06:31:21;;;;;;;30.37;21.87;;;;;;;1.42;100.00;100952.53;5066700;28;20221;-75
2022/02/27 06:33:48;;;;;;;29.80;21.53;;;;;;;1.34;100.00;100950.53;5046399;28;20233;-74
2022/02/27 06:36:17;;;;;;;27.33;20.47;;;;;;;1.37;100.00;100960.84;5040033;28;20321;-76
2022/02/27 06:38:45;;;;;;;30.80;22.23;;;;;;;1.41;100.00;100958.75;5045553;28;20230;-75
2022/02/27 06:41:12;;;;;;;27.80;21.07;;;;;;;1.45;100.00;100970.75;5041789;28;20626;-78
2022/02/27 06:43:39;;;;;;;29.60;21.23;;;;;;;1.52;100.00;100956.91;5046494;28;20228;-76
2022/02/27 06:46:10;;;;;;;27.37;21.20;;;;;;;1.59;100.00;100973.06;5043468;28;20249;-75
2022/02/27 06:48:37;;;;;;;27.73;20.47;;;;;;;1.86;100.00;100969.91;5042265;28;20237;-73
2022/02/27 06:51:10;;;;;;;27.67;21.03;;;;;;;1.97;100.00;100969.78;5046684;28;20225;-73
2022/02/27 06:53:38;;;;;;;27.53;21.37;;;;;;;2.20;100.00;100960.72;5047132;28;20678;-76
2022/02/27 06:56:07;;;;;;;31.07;21.73;;;;;;;2.14;100.00;100966.56;5045675;28;20288;-73
2022/02/27 06:58:34;;;;;;;31.43;21.43;;;;;;;2.20;100.00;100966.84;5043083;28;20246;-72
2022/02/27 07:01:02;;;;;;;29.17;20.90;;;;;;;2.20;100.00;100971.28;5044122;28;20230;-74
2022/02/27 07:03:33;;;;;;;29.07;21.73;;;;;;;2.27;100.00;100984.84;5046097;28;20222;-78
2022/02/27 07:06:02;;;;;;;28.43;21.00;;;;;;;2.48;100.00;100982.94;5062771;28;20237;-73
2022/02/27 07:08:29;;;;;;;31.07;21.67;;;;;;;2.55;100.00;100986.72;5047847;28;20226;-74
2022/02/27 07:11:02;;;;;;;28.93;21.90;;;;;;;2.69;100.00;100985.50;5063279;22;20676;-73
2022/02/27 07:13:34;;;;;;;27.57;21.17;;;;;;;2.80;100.00;100980.13;5069656;22;20264;-74
2022/02/27 07:16:05;;;;;;;28.53;20.87;;;;;;;2.73;100.00;100982.47;5050648;23;20241;-74
2022/02/27 07:18:38;;;;;;;27.43;20.60;;;;;;;2.72;100.00;100985.22;5057966;28;20233;-73
2022/02/27 07:21:07;;;;;;;30.50;22.03;;;;;;;2.72;100.00;100982.59;5073725;23;20252;-73
2022/02/27 07:23:37;;;;;;;27.63;20.23;;;;;;;2.73;100.00;100986.91;5064839;28;20584;-73
2022/02/27 07:26:08;;;;;;;29.17;20.83;;;;;;;2.75;100.00;100992.91;5063599;28;20233;-73
2022/02/27 07:28:38;;;;;;;28.00;21.10;;;;;;;2.47;100.00;100989.22;5065273;28;20221;-75
2022/02/27 07:31:13;;;;;;;31.10;22.07;;;;;;;2.31;100.00;100995.00;5063486;28;20620;-74
2022/02/27 07:33:46;;;;;;;29.00;21.77;;;;;;;2.06;100.00;100998.94;5068579;28;20311;-73
2022/02/27 07:36:13;;;;;;;30.90;21.97;;;;;;;2.23;100.00;101010.72;5067743;28;20288;-74
2022/02/27 07:38:46;;;;;;;32.90;22.93;;;;;;;2.24;100.00;101000.97;5074699;28;20632;-75
2022/02/27 07:41:23;;;;;;;33.97;22.17;;;;;;;2.39;100.00;101002.25;5053325;28;20644;-74
2022/02/27 07:43:59;;;;;;;31.03;22.90;;;;;;;2.30;100.00;101006.56;5046987;23;20236;-73
2022/02/27 07:46:38;;;;;;;34.57;21.93;;;;;;;2.42;100.00;100999.38;5046872;28;20224;-73
2022/02/27 07:49:16;;;;;;;36.77;26.17;;;;;;;2.63;100.00;101008.91;5047370;28;20232;-73
2022/02/27 07:51:47;;;;;;;38.23;32.33;;;;;;;2.73;100.00;101008.09;5052173;23;20317;-73
2022/02/27 07:54:17;;;;;;;32.47;23.87;;;;;;;2.73;100.00;101006.28;5067112;28;20222;-73
2022/02/27 07:56:52;;;;;;;30.67;21.90;;;;;;;2.69;100.00;101006.69;5062197;28;20222;-74
2022/02/27 07:59:22;;;;;;;34.40;23.40;;;;;;;2.72;100.00;101009.03;5080027;22;20240;-74
2022/02/27 08:01:51;;;;;;;32.90;22.97;;;;;;;2.93;100.00;101000.06;5049175;28;20229;-73
2022/02/27 08:04:21;;;;;;;32.23;21.63;;;;;;;2.98;100.00;101008.44;5059194;28;20225;-74
2022/02/27 08:06:51;;;;;;;30.00;21.90;;;;;;;3.06;100.00;101005.91;5064983;28;20248;-73
2022/02/27 08:09:38;;;;;;;29.83;21.90;;;;;;;3.17;100.00;101018.19;5070676;22;20328;-75
2022/02/27 08:12:09;;;;;;;34.77;23.23;;;;;;;3.19;100.00;101020.69;5047863;28;20237;-73
2022/02/27 08:14:36;;;;;;;31.13;23.20;;;;;;;3.02;100.00;101014.28;5065271;28;20237;-73
2022/02/27 08:17:07;;;;;;;33.57;23.87;;;;;;;3.11;100.00;101013.44;5073281;22;20450;-73
2022/02/27 08:19:36;;;;;;;33.90;22.90;;;;;;;3.23;100.00;101014.13;5025813;28;20290;-73
2022/02/27 08:22:04;;;;;;;35.00;23.77;;;;;;;3.45;100.00;101016.53;5026575;28;20225;-74
2022/02/27 08:24:33;;;;;;;31.13;22.97;;;;;;;3.45;100.00;101020.00;5009103;28;20227;-73
2022/02/27 08:27:08;;;;;;;31.33;22.87;;;;;;;3.44;100.00;101013.03;5026169;28;20290;-73
2022/02/27 08:29:39;;;;;;;32.63;23.10;;;;;;;3.65;100.00;101014.69;5027828;28;20231;-73
2022/02/27 08:32:12;;;;;;;31.67;22.70;;;;;;;3.55;100.00;101004.94;5055619;22;20233;-73
2022/02/27 08:34:44;;;;;;;29.83;22.43;;;;;;;3.72;100.00;100991.94;5044581;28;20229;-73
2022/02/27 08:37:15;;;;;;;32.33;23.53;;;;;;;3.75;100.00;100992.47;5063539;28;20287;-73
2022/02/27 08:39:51;;;;;;;31.40;23.63;;;;;;;3.72;100.00;100987.47;5051803;23;20228;-75
2022/02/27 08:42:21;;;;;;;31.83;23.07;;;;;;;3.95;100.00;100982.69;5036623;28;20230;-77
2022/02/27 08:44:54;;;;;;;27.63;21.20;;;;;;;4.05;100.00;100995.91;5031620;28;20252;-72
2022/02/27 08:47:27;;;;;;;33.37;23.57;;;;;;;4.00;100.00;100983.09;5055997;23;20300;-74
2022/02/27 08:49:56;;;;;;;28.23;22.30;;;;;;;4.13;100.00;100988.06;5048640;28;20237;-73
2022/02/27 08:52:23;;;;;;;33.07;22.73;;;;;;;3.89;100.00;100988.53;5065114;28;20239;-74
2022/02/27 08:54:51;;;;;;;34.37;23.53;;;;;;;4.12;100.00;100996.97;5065693;28;20227;-74
2022/02/27 08:57:19;;;;;;;28.53;21.53;;;;;;;4.16;100.00;100993.06;5064731;28;20308;-73
2022/02/27 08:59:48;;;;;;;31.67;20.77;;;;;;;4.23;100.00;100996.81;5060374;28;20304;-73
2022/02/27 09:02:16;;;;;;;28.53;20.67;;;;;;;4.46;100.00;100995.47;5058778;28;20225;-73
2022/02/27 09:04:45;;;;;;;29.60;21.87;;;;;;;4.47;100.00;100994.47;5059480;28;20229;-73
2022/02/27 09:07:12;;;;;;;27.23;21.07;;;;;;;4.45;100.00;100993.78;5059347;28;20229;-73
2022/02/27 09:09:38;;;;;;;28.00;20.77;;;;;;;4.38;100.00;100992.72;5043388;28;20295;-73
2022/02/27 09:12:07;;;;;;;28.33;20.80;;;;;;;4.42;100.00;100994.09;5042446;28;20331;-73
2022/02/27 09:14:42;;;;;;;29.03;21.10;;;;;;;4.59;100.00;100981.84;5058767;28;20264;-73
2022/02/27 09:17:09;;;;;;;26.43;19.67;;;;;;;4.59;100.00;100984.47;5058956;28;20247;-73
2022/02/27 09:19:35;;;;;;;25.80;19.60;;;;;;;4.40;100.00;100977.47;5058779;28;20225;-73
2022/02/27 09:22:03;;;;;;;26.90;18.83;;;;;;;4.51;100.00;100979.09;5059375;28;20256;-73
2022/02/27 09:24:30;;;;;;;26.83;19.30;;;;;;;4.70;100.00;100982.47;5058699;28;20229;-73
2022/02/27 09:26:59;;;;;;;28.10;20.27;;;;;;;4.59;100.00;100976.53;5058916;28;20247;-73
2022/02/27 09:29:29;;;;;;;29.93;21.73;;;;;;;4.58;100.00;100975.69;5057731;28;20311;-73
2022/02/27 09:31:57;;;;;;;35.77;26.63;;;;;;;4.74;100.00;100975.03;5043020;28;20229;-73
2022/02/27 09:34:23;;;;;;;26.97;20.73;;;;;;;4.78;100.00;100971.09;5057917;28;20490;-73
2022/02/27 09:36:54;;;;;;;26.37;20.30;;;;;;;4.86;100.00;100971.19;5044179;28;20267;-73
2022/02/27 09:39:23;;;;;;;25.50;19.63;;;;;;;4.91;100.00;100968.91;5041603;28;20221;-73
2022/02/27 09:41:54;;;;;;;28.20;20.57;;;;;;;4.92;100.00;100978.56;5041174;28;20251;-73
2022/02/27 09:44:21;;;;;;;27.27;19.13;;;;;;;5.09;100.00;100983.03;5057548;28;20264;-73
2022/02/27 09:46:50;;;;;;;24.77;18.33;;;;;;;5.11;100.00;100981.06;5042146;28;20275;-73
2022/02/27 09:49:17;;;;;;;24.67;19.43;;;;;;;5.14;100.00;100979.91;5026183;28;20322;-73
2022/02/27 09:51:43;;;;;;;27.07;21.10;;;;;;;5.20;100.00;100989.94;5057885;28;20532;-73
2022/02/27 09:54:13;;;;;;;25.87;19.00;;;;;;;5.21;100.00;100991.63;5057712;28;20269;-73
2022/02/27 09:56:41;;;;;;;26.67;20.97;;;;;;;5.13;100.00;100992.38;5046817;28;20229;-73
2022/02/27 09:59:10;;;;;;;24.07;18.63;;;;;;;5.11;100.00;100993.50;5045429;28;20229;-72
2022/02/27 10:02:18;;;;;;;25.60;18.20;;;;;;;5.01;100.00;100987.44;5070981;22;20312;-73
2022/02/27 10:04:50;;;;;;;23.90;17.03;;;;;;;5.23;100.00;100981.66;5070443;22;20279;-73
2022/02/27 10:07:19;;;;;;;25.93;18.83;;;;;;;5.32;100.00;100978.94;5063855;28;20265;-73
2022/02/27 10:09:49;;;;;;;26.70;19.70;;;;;;;5.43;99.46;100985.00;5061349;28;20290;-73
2022/02/27 10:12:24;;;;;;;24.50;18.70;;;;;;;5.51;97.14;100980.56;5065113;23;20233;-73
2022/02/27 10:15:19;;;;;;;25.10;19.60;;;;;;;5.55;100.00;100973.97;5035009;28;20587;-73
2022/02/27 10:17:51;;;;;;;24.97;18.23;;;;;;;5.69;100.00;100984.03;5034527;28;20234;-73
2022/02/27 10:20:22;;;;;;;28.97;20.97;;;;;;;5.71;100.00;100978.56;5043906;23;21552;-73
2022/02/27 10:22:52;;;;;;;26.17;20.20;;;;;;;5.80;100.00;100979.47;5042566;28;20253;-73
2022/02/27 10:25:28;;;;;;;24.33;18.23;;;;;;;5.72;95.61;100974.94;5058968;28;20315;-73
2022/02/27 10:28:05;;;;;;;22.60;17.50;;;;;;;5.99;91.42;100980.13;5058505;28;20278;-73
2022/02/27 10:30:38;;;;;;;23.20;18.07;;;;;;;6.04;91.23;100966.34;5052877;28;20229;-73
2022/02/27 10:33:16;;;;;;;24.33;18.43;;;;;;;6.04;92.29;100963.69;5054353;28;20259;-73
2022/02/27 10:35:52;;;;;;;23.07;17.53;;;;;;;6.12;87.26;100969.88;5057942;28;20585;-73
2022/02/27 10:38:44;;;;;;;26.53;18.90;;;;;;;5.94;92.87;100962.97;5059840;28;20225;-73
2022/02/27 10:41:21;;;;;;;28.97;19.17;;;;;;;6.15;94.11;100948.28;5059533;28;20221;-73
2022/02/27 10:43:53;;;;;;;24.60;19.13;;;;;;;6.24;91.23;100950.97;5061334;28;20193;-73
2022/02/27 10:46:25;;;;;;;23.33;17.90;;;;;;;6.14;88.44;100943.97;5061417;28;20248;-73
2022/02/27 10:48:53;;;;;;;24.07;17.57;;;;;;;6.16;84.36;100933.13;5057451;28;20263;-74
2022/02/27 10:51:21;;;;;;;22.67;16.73;;;;;;;6.35;82.83;100935.53;5049793;28;20233;-73
2022/02/27 10:53:48;;;;;;;24.10;18.10;;;;;;;6.42;82.75;100925.09;5060574;28;20227;-72
2022/02/27 10:56:21;;;;;;;23.30;17.30;;;;;;;6.16;84.28;100923.31;5057643;28;20280;-72
2022/02/27 10:58:49;;;;;;;22.93;17.73;;;;;;;6.32;83.91;100921.72;5058402;28;20697;-73
2022/02/27 11:01:20;;;;;;;24.93;17.67;;;;;;;6.35;84.33;100919.56;5054242;28;20223;-73
2022/02/27 11:03:55;;;;;;;22.73;17.00;;;;;;;6.50;83.75;100907.31;5054193;28;20229;-73
2022/02/27 11:06:22;;;;;;;20.87;16.37;;;;;;;6.61;80.88;100909.69;5049724;28;20296;-73
2022/02/27 11:08:57;;;;;;;24.80;19.07;;;;;;;6.59;81.19;100900.19;5041138;28;20260;-73
2022/02/27 11:11:26;;;;;;;25.93;17.57;;;;;;;6.64;80.62;100903.19;5019619;28;20230;-73
2022/02/27 11:13:54;;;;;;;23.73;17.53;;;;;;;6.36;81.99;100901.78;5025807;28;20233;-73
2022/02/27 11:16:23;;;;;;;20.30;16.03;;;;;;;6.73;78.70;100888.06;5015998;28;20597;-73
2022/02/27 11:18:55;;;;;;;22.20;17.30;;;;;;;6.87;77.80;100893.56;5007406;28;20695;-73
2022/02/27 11:21:36;;;;;;;21.30;16.20;;;;;;;7.01;75.47;100884.09;5015348;28;20242;-73
2022/02/27 11:24:08;;;;;;;21.83;16.63;;;;;;;7.23;75.02;100887.94;5023872;28;20528;-75
2022/02/27 11:26:35;;;;;;;22.00;16.07;;;;;;;7.10;73.65;100891.06;5024504;28;20629;-73
2022/02/27 11:29:02;;;;;;;21.33;15.57;;;;;;;6.93;72.10;100889.41;5031017;28;20629;-73
2022/02/27 11:31:44;;;;;;;21.47;15.20;;;;;;;6.93;72.38;100882.25;5028569;28;20237;-73
2022/02/27 11:34:13;;;;;;;31.37;21.27;;;;;;;6.67;75.45;100878.06;4995879;28;20254;-74
2022/02/27 11:36:45;;;;;;;21.67;16.37;;;;;;;6.89;73.82;100888.09;5047774;22;20217;-74